sensor_id;sensor_type;location;lat;lon;timestamp;P1;durP1;ratioP1;P2;durP2;ratioP2
7487;SDS011;3785;52.260;4.728;2023-03-01T00:00:15;8.27;;;4.67;;
7487;SDS011;3785;52.260;4.728;2023-03-01T00:03:36;8.03;;;5.67;;
7487;SDS011;3785;52.260;4.728;2023-03-01T00:06:57;5.77;;;4.17;;
7487;SDS011;3785;52.260;4.728;2023-03-01T00:10:17;8.67;;;5.67;;
7487;SDS011;3785;52.260;4.728;2023-03-01T00:13:38;9.33;;;5.93;;
7487;SDS011;3785;52.260;4.728;2023-03-01T00:16:59;8.77;;;5.57;;
7487;SDS011;3785;52.260;4.728;2023-03-01T00:20:19;7.47;;;4.80;;
7487;SDS011;3785;52.260;4.728;2023-03-01T00:23:40;8.53;;;4.93;;
7487;SDS011;3785;52.260;4.728;2023-03-01T00:27:01;8.57;;;5.40;;
7487;SDS011;3785;52.260;4.728;2023-03-01T00:30:21;9.37;;;4.93;;
7487;SDS011;3785;52.260;4.728;2023-03-01T00:33:43;8.87;;;5.83;;
7487;SDS011;3785;52.260;4.728;2023-03-01T00:37:04;9.07;;;5.00;;
7487;SDS011;3785;52.260;4.728;2023-03-01T00:40:26;9.53;;;5.37;;
7487;SDS011;3785;52.260;4.728;2023-03-01T00:43:48;12.73;;;5.97;;
7487;SDS011;3785;52.260;4.728;2023-03-01T00:47:09;9.80;;;6.30;;
7487;SDS011;3785;52.260;4.728;2023-03-01T00:50:30;12.43;;;6.50;;
7487;SDS011;3785;52.260;4.728;2023-03-01T00:53:51;11.27;;;5.87;;
7487;SDS011;3785;52.260;4.728;2023-03-01T00:57:13;9.17;;;5.77;;
7487;SDS011;3785;52.260;4.728;2023-03-01T01:00:34;9.97;;;6.00;;
7487;SDS011;3785;52.260;4.728;2023-03-01T01:03:55;10.63;;;5.53;;
7487;SDS011;3785;52.260;4.728;2023-03-01T01:07:17;9.03;;;5.57;;
7487;SDS011;3785;52.260;4.728;2023-03-01T01:10:39;12.53;;;7.03;;
7487;SDS011;3785;52.260;4.728;2023-03-01T01:14:00;10.23;;;5.40;;
7487;SDS011;3785;52.260;4.728;2023-03-01T01:17:21;13.03;;;6.00;;
7487;SDS011;3785;52.260;4.728;2023-03-01T01:20:41;11.10;;;6.03;;
7487;SDS011;3785;52.260;4.728;2023-03-01T01:24:02;10.43;;;5.90;;
7487;SDS011;3785;52.260;4.728;2023-03-01T01:27:24;15.00;;;6.43;;
7487;SDS011;3785;52.260;4.728;2023-03-01T01:30:44;11.17;;;6.00;;
7487;SDS011;3785;52.260;4.728;2023-03-01T01:34:06;12.63;;;6.03;;
7487;SDS011;3785;52.260;4.728;2023-03-01T01:37:27;10.43;;;6.57;;
7487;SDS011;3785;52.260;4.728;2023-03-01T01:40:51;11.07;;;6.90;;
7487;SDS011;3785;52.260;4.728;2023-03-01T01:47:32;8.73;;;6.30;;
7487;SDS011;3785;52.260;4.728;2023-03-01T01:50:57;15.53;;;6.50;;
7487;SDS011;3785;52.260;4.728;2023-03-01T01:54:20;10.90;;;6.27;;
7487;SDS011;3785;52.260;4.728;2023-03-01T01:57:45;10.10;;;6.37;;
7487;SDS011;3785;52.260;4.728;2023-03-01T02:01:07;12.53;;;7.10;;
7487;SDS011;3785;52.260;4.728;2023-03-01T02:04:28;11.23;;;6.30;;
7487;SDS011;3785;52.260;4.728;2023-03-01T02:07:49;11.93;;;6.73;;
7487;SDS011;3785;52.260;4.728;2023-03-01T02:11:10;11.73;;;6.57;;
7487;SDS011;3785;52.260;4.728;2023-03-01T02:14:31;16.03;;;7.73;;
7487;SDS011;3785;52.260;4.728;2023-03-01T02:17:52;11.13;;;6.20;;
7487;SDS011;3785;52.260;4.728;2023-03-01T02:28:38;14.10;;;7.80;;
7487;SDS011;3785;52.260;4.728;2023-03-01T02:32:01;13.73;;;7.30;;
7487;SDS011;3785;52.260;4.728;2023-03-01T02:35:22;12.53;;;7.27;;
7487;SDS011;3785;52.260;4.728;2023-03-01T02:38:43;11.63;;;7.40;;
7487;SDS011;3785;52.260;4.728;2023-03-01T02:42:04;13.17;;;7.43;;
7487;SDS011;3785;52.260;4.728;2023-03-01T02:45:26;14.30;;;7.60;;
7487;SDS011;3785;52.260;4.728;2023-03-01T02:48:48;14.83;;;7.73;;
7487;SDS011;3785;52.260;4.728;2023-03-01T02:55:48;15.70;;;8.40;;
7487;SDS011;3785;52.260;4.728;2023-03-01T02:59:10;14.23;;;7.73;;
7487;SDS011;3785;52.260;4.728;2023-03-01T03:02:31;12.73;;;7.97;;
7487;SDS011;3785;52.260;4.728;2023-03-01T03:05:57;17.53;;;8.00;;
7487;SDS011;3785;52.260;4.728;2023-03-01T03:09:18;17.10;;;8.70;;
7487;SDS011;3785;52.260;4.728;2023-03-01T03:12:39;18.57;;;9.50;;
7487;SDS011;3785;52.260;4.728;2023-03-01T03:15:59;16.17;;;8.70;;
7487;SDS011;3785;52.260;4.728;2023-03-01T03:19:22;16.70;;;10.07;;
7487;SDS011;3785;52.260;4.728;2023-03-01T03:22:43;14.73;;;8.57;;
7487;SDS011;3785;52.260;4.728;2023-03-01T03:26:04;16.20;;;8.77;;
7487;SDS011;3785;52.260;4.728;2023-03-01T03:29:25;14.97;;;7.87;;
7487;SDS011;3785;52.260;4.728;2023-03-01T03:32:46;15.20;;;6.97;;
7487;SDS011;3785;52.260;4.728;2023-03-01T03:36:16;24.30;;;7.77;;
7487;SDS011;3785;52.260;4.728;2023-03-01T03:39:41;14.40;;;6.73;;
7487;SDS011;3785;52.260;4.728;2023-03-01T03:43:03;13.50;;;7.40;;
7487;SDS011;3785;52.260;4.728;2023-03-01T03:46:25;12.60;;;6.70;;
7487;SDS011;3785;52.260;4.728;2023-03-01T03:49:45;14.67;;;6.63;;
7487;SDS011;3785;52.260;4.728;2023-03-01T03:53:08;11.17;;;6.37;;
7487;SDS011;3785;52.260;4.728;2023-03-01T03:56:30;12.57;;;6.43;;
7487;SDS011;3785;52.260;4.728;2023-03-01T03:59:50;20.17;;;6.50;;
7487;SDS011;3785;52.260;4.728;2023-03-01T04:03:11;24.97;;;7.07;;
7487;SDS011;3785;52.260;4.728;2023-03-01T04:06:33;18.77;;;6.60;;
7487;SDS011;3785;52.260;4.728;2023-03-01T04:09:53;10.07;;;5.70;;
7487;SDS011;3785;52.260;4.728;2023-03-01T04:13:15;23.93;;;6.87;;
7487;SDS011;3785;52.260;4.728;2023-03-01T04:16:40;11.40;;;6.63;;
7487;SDS011;3785;52.260;4.728;2023-03-01T04:20:01;23.43;;;6.00;;
7487;SDS011;3785;52.260;4.728;2023-03-01T04:23:25;16.27;;;6.70;;
7487;SDS011;3785;52.260;4.728;2023-03-01T04:26:46;19.50;;;7.93;;
7487;SDS011;3785;52.260;4.728;2023-03-01T04:30:07;16.23;;;8.93;;
7487;SDS011;3785;52.260;4.728;2023-03-01T04:33:28;12.57;;;7.57;;
7487;SDS011;3785;52.260;4.728;2023-03-01T04:36:49;12.07;;;7.13;;
7487;SDS011;3785;52.260;4.728;2023-03-01T04:40:09;30.87;;;7.27;;
7487;SDS011;3785;52.260;4.728;2023-03-01T04:43:33;19.50;;;7.47;;
7487;SDS011;3785;52.260;4.728;2023-03-01T04:46:56;31.67;;;6.80;;
7487;SDS011;3785;52.260;4.728;2023-03-01T04:50:18;10.90;;;6.63;;
7487;SDS011;3785;52.260;4.728;2023-03-01T04:53:43;12.30;;;6.20;;
7487;SDS011;3785;52.260;4.728;2023-03-01T04:57:04;12.30;;;7.10;;
7487;SDS011;3785;52.260;4.728;2023-03-01T05:00:24;14.87;;;6.47;;
7487;SDS011;3785;52.260;4.728;2023-03-01T05:03:46;10.93;;;6.40;;
7487;SDS011;3785;52.260;4.728;2023-03-01T05:07:08;17.33;;;6.80;;
7487;SDS011;3785;52.260;4.728;2023-03-01T05:10:29;11.00;;;5.37;;
7487;SDS011;3785;52.260;4.728;2023-03-01T05:13:50;14.73;;;6.40;;
7487;SDS011;3785;52.260;4.728;2023-03-01T05:17:14;8.57;;;5.27;;
7487;SDS011;3785;52.260;4.728;2023-03-01T05:20:35;9.60;;;5.23;;
7487;SDS011;3785;52.260;4.728;2023-03-01T05:23:56;12.73;;;7.20;;
7487;SDS011;3785;52.260;4.728;2023-03-01T05:27:16;12.63;;;6.57;;
7487;SDS011;3785;52.260;4.728;2023-03-01T05:30:37;13.07;;;7.07;;
7487;SDS011;3785;52.260;4.728;2023-03-01T05:34:00;14.00;;;7.20;;
7487;SDS011;3785;52.260;4.728;2023-03-01T05:37:22;11.17;;;7.10;;
7487;SDS011;3785;52.260;4.728;2023-03-01T05:40:43;14.77;;;7.47;;
7487;SDS011;3785;52.260;4.728;2023-03-01T05:44:05;12.90;;;6.83;;
7487;SDS011;3785;52.260;4.728;2023-03-01T05:47:26;16.30;;;7.63;;
7487;SDS011;3785;52.260;4.728;2023-03-01T05:50:47;12.30;;;8.67;;
7487;SDS011;3785;52.260;4.728;2023-03-01T05:54:07;16.20;;;8.63;;
7487;SDS011;3785;52.260;4.728;2023-03-01T05:57:31;15.87;;;8.00;;
7487;SDS011;3785;52.260;4.728;2023-03-01T06:00:52;15.80;;;8.70;;
7487;SDS011;3785;52.260;4.728;2023-03-01T06:04:12;14.70;;;8.13;;
7487;SDS011;3785;52.260;4.728;2023-03-01T06:07:33;15.60;;;8.07;;
7487;SDS011;3785;52.260;4.728;2023-03-01T06:10:53;16.23;;;8.47;;
7487;SDS011;3785;52.260;4.728;2023-03-01T06:14:14;12.90;;;8.80;;
7487;SDS011;3785;52.260;4.728;2023-03-01T06:17:35;15.70;;;8.63;;
7487;SDS011;3785;52.260;4.728;2023-03-01T06:20:57;11.50;;;6.97;;
7487;SDS011;3785;52.260;4.728;2023-03-01T06:24:18;17.63;;;7.73;;
7487;SDS011;3785;52.260;4.728;2023-03-01T06:27:38;12.37;;;7.90;;
7487;SDS011;3785;52.260;4.728;2023-03-01T06:30:59;15.03;;;7.37;;
7487;SDS011;3785;52.260;4.728;2023-03-01T06:34:20;18.63;;;9.13;;
7487;SDS011;3785;52.260;4.728;2023-03-01T06:37:41;15.47;;;8.23;;
7487;SDS011;3785;52.260;4.728;2023-03-01T06:41:02;13.50;;;7.67;;
7487;SDS011;3785;52.260;4.728;2023-03-01T06:44:22;18.33;;;8.50;;
7487;SDS011;3785;52.260;4.728;2023-03-01T06:47:43;12.37;;;7.40;;
7487;SDS011;3785;52.260;4.728;2023-03-01T06:51:04;14.07;;;7.50;;
7487;SDS011;3785;52.260;4.728;2023-03-01T06:54:24;18.00;;;7.90;;
7487;SDS011;3785;52.260;4.728;2023-03-01T06:57:45;16.87;;;8.47;;
7487;SDS011;3785;52.260;4.728;2023-03-01T07:01:06;19.00;;;9.83;;
7487;SDS011;3785;52.260;4.728;2023-03-01T07:04:28;16.90;;;8.70;;
7487;SDS011;3785;52.260;4.728;2023-03-01T07:07:49;16.07;;;8.40;;
7487;SDS011;3785;52.260;4.728;2023-03-01T07:11:10;13.97;;;8.97;;
7487;SDS011;3785;52.260;4.728;2023-03-01T07:14:31;17.43;;;9.80;;
7487;SDS011;3785;52.260;4.728;2023-03-01T07:17:51;17.53;;;9.03;;
7487;SDS011;3785;52.260;4.728;2023-03-01T07:21:13;16.20;;;8.67;;
7487;SDS011;3785;52.260;4.728;2023-03-01T07:24:34;18.00;;;8.47;;
7487;SDS011;3785;52.260;4.728;2023-03-01T07:27:54;17.50;;;9.07;;
7487;SDS011;3785;52.260;4.728;2023-03-01T07:31:15;22.20;;;9.53;;
7487;SDS011;3785;52.260;4.728;2023-03-01T07:34:36;19.30;;;10.13;;
7487;SDS011;3785;52.260;4.728;2023-03-01T07:37:56;20.17;;;10.33;;
7487;SDS011;3785;52.260;4.728;2023-03-01T07:41:17;24.17;;;10.97;;
7487;SDS011;3785;52.260;4.728;2023-03-01T07:44:37;23.60;;;10.60;;
7487;SDS011;3785;52.260;4.728;2023-03-01T07:47:58;27.33;;;11.57;;
7487;SDS011;3785;52.260;4.728;2023-03-01T07:51:18;25.63;;;11.87;;
7487;SDS011;3785;52.260;4.728;2023-03-01T07:54:39;27.43;;;11.70;;
7487;SDS011;3785;52.260;4.728;2023-03-01T07:58:02;26.37;;;12.60;;
7487;SDS011;3785;52.260;4.728;2023-03-01T08:01:23;30.33;;;11.83;;
7487;SDS011;3785;52.260;4.728;2023-03-01T08:04:44;30.77;;;12.77;;
7487;SDS011;3785;52.260;4.728;2023-03-01T08:08:04;32.10;;;14.07;;
7487;SDS011;3785;52.260;4.728;2023-03-01T08:11:25;33.87;;;14.30;;
7487;SDS011;3785;52.260;4.728;2023-03-01T08:14:48;28.87;;;13.47;;
7487;SDS011;3785;52.260;4.728;2023-03-01T08:18:09;34.00;;;14.60;;
7487;SDS011;3785;52.260;4.728;2023-03-01T08:21:29;29.87;;;13.83;;
7487;SDS011;3785;52.260;4.728;2023-03-01T08:24:50;29.33;;;13.60;;
7487;SDS011;3785;52.260;4.728;2023-03-01T08:28:11;27.33;;;12.83;;
7487;SDS011;3785;52.260;4.728;2023-03-01T08:31:33;34.10;;;14.43;;
7487;SDS011;3785;52.260;4.728;2023-03-01T08:34:55;28.33;;;14.37;;
7487;SDS011;3785;52.260;4.728;2023-03-01T08:38:16;30.27;;;14.33;;
7487;SDS011;3785;52.260;4.728;2023-03-01T08:41:36;28.67;;;14.07;;
7487;SDS011;3785;52.260;4.728;2023-03-01T08:44:57;31.57;;;14.87;;
7487;SDS011;3785;52.260;4.728;2023-03-01T08:48:18;31.80;;;13.73;;
7487;SDS011;3785;52.260;4.728;2023-03-01T08:51:39;26.33;;;13.77;;
7487;SDS011;3785;52.260;4.728;2023-03-01T08:54:59;25.40;;;13.40;;
7487;SDS011;3785;52.260;4.728;2023-03-01T08:58:21;25.53;;;13.07;;
7487;SDS011;3785;52.260;4.728;2023-03-01T09:01:41;29.70;;;12.80;;
7487;SDS011;3785;52.260;4.728;2023-03-01T09:05:05;30.37;;;11.90;;
7487;SDS011;3785;52.260;4.728;2023-03-01T09:08:26;26.07;;;13.43;;
7487;SDS011;3785;52.260;4.728;2023-03-01T09:11:46;24.90;;;11.97;;
7487;SDS011;3785;52.260;4.728;2023-03-01T09:15:10;27.00;;;12.60;;
7487;SDS011;3785;52.260;4.728;2023-03-01T09:18:30;33.37;;;14.03;;
7487;SDS011;3785;52.260;4.728;2023-03-01T09:21:51;29.60;;;13.30;;
7487;SDS011;3785;52.260;4.728;2023-03-01T09:25:12;29.60;;;14.37;;
7487;SDS011;3785;52.260;4.728;2023-03-01T09:28:32;33.97;;;16.40;;
7487;SDS011;3785;52.260;4.728;2023-03-01T09:31:53;35.07;;;16.07;;
7487;SDS011;3785;52.260;4.728;2023-03-01T09:35:15;30.47;;;15.13;;
7487;SDS011;3785;52.260;4.728;2023-03-01T09:38:35;33.35;;;14.40;;
7487;SDS011;3785;52.260;4.728;2023-03-01T09:42:00;23.80;;;12.70;;
7487;SDS011;3785;52.260;4.728;2023-03-01T09:48:56;25.88;;;12.57;;
7487;SDS011;3785;52.260;4.728;2023-03-01T09:52:33;29.30;;;13.18;;
7487;SDS011;3785;52.260;4.728;2023-03-01T09:55:55;30.90;;;13.90;;
7487;SDS011;3785;52.260;4.728;2023-03-01T09:59:23;28.05;;;14.15;;
7487;SDS011;3785;52.260;4.728;2023-03-01T10:02:49;34.30;;;15.18;;
7487;SDS011;3785;52.260;4.728;2023-03-01T10:06:14;30.75;;;15.40;;
7487;SDS011;3785;52.260;4.728;2023-03-01T10:09:40;33.85;;;14.73;;
7487;SDS011;3785;52.260;4.728;2023-03-01T10:13:06;31.40;;;14.02;;
7487;SDS011;3785;52.260;4.728;2023-03-01T10:20:10;30.90;;;14.48;;
7487;SDS011;3785;52.260;4.728;2023-03-01T10:23:41;26.65;;;14.18;;
7487;SDS011;3785;52.260;4.728;2023-03-01T10:27:11;27.77;;;12.93;;
7487;SDS011;3785;52.260;4.728;2023-03-01T10:30:57;24.92;;;12.73;;
7487;SDS011;3785;52.260;4.728;2023-03-01T10:37:45;9.75;;;6.05;;
7487;SDS011;3785;52.260;4.728;2023-03-01T10:41:16;7.10;;;4.53;;
7487;SDS011;3785;52.260;4.728;2023-03-01T10:44:42;6.82;;;4.32;;
7487;SDS011;3785;52.260;4.728;2023-03-01T10:51:44;7.40;;;5.10;;
7487;SDS011;3785;52.260;4.728;2023-03-01T10:58:33;6.28;;;4.00;;
7487;SDS011;3785;52.260;4.728;2023-03-01T11:05:37;10.57;;;5.32;;
7487;SDS011;3785;52.260;4.728;2023-03-01T11:09:22;10.00;;;4.95;;
7487;SDS011;3785;52.260;4.728;2023-03-01T11:12:43;8.40;;;5.00;;
7487;SDS011;3785;52.260;4.728;2023-03-01T11:16:08;8.93;;;5.43;;
7487;SDS011;3785;52.260;4.728;2023-03-01T11:19:30;14.27;;;6.43;;
7487;SDS011;3785;52.260;4.728;2023-03-01T11:23:10;14.30;;;7.00;;
7487;SDS011;3785;52.260;4.728;2023-03-01T11:26:34;11.85;;;7.13;;
7487;SDS011;3785;52.260;4.728;2023-03-01T11:30:02;12.48;;;7.22;;
7487;SDS011;3785;52.260;4.728;2023-03-01T11:41:12;16.80;;;8.68;;
7487;SDS011;3785;52.260;4.728;2023-03-01T11:44:37;14.07;;;8.50;;
7487;SDS011;3785;52.260;4.728;2023-03-01T11:48:01;15.90;;;9.02;;
7487;SDS011;3785;52.260;4.728;2023-03-01T12:38:46;8.82;;;5.68;;
7487;SDS011;3785;52.260;4.728;2023-03-01T12:49:38;8.50;;;5.20;;
7487;SDS011;3785;52.260;4.728;2023-03-01T12:53:04;9.73;;;5.25;;
7487;SDS011;3785;52.260;4.728;2023-03-01T12:56:26;7.78;;;4.57;;
7487;SDS011;3785;52.260;4.728;2023-03-01T13:00:02;9.02;;;5.50;;
7487;SDS011;3785;52.260;4.728;2023-03-01T13:03:32;7.80;;;4.38;;
7487;SDS011;3785;52.260;4.728;2023-03-01T13:10:54;9.02;;;4.35;;
7487;SDS011;3785;52.260;4.728;2023-03-01T13:17:41;6.93;;;4.35;;
7487;SDS011;3785;52.260;4.728;2023-03-01T13:21:03;9.63;;;4.40;;
7487;SDS011;3785;52.260;4.728;2023-03-01T13:32:01;9.00;;;5.13;;
7487;SDS011;3785;52.260;4.728;2023-03-01T13:38:48;7.10;;;4.07;;
7487;SDS011;3785;52.260;4.728;2023-03-01T13:42:31;7.75;;;4.28;;
7487;SDS011;3785;52.260;4.728;2023-03-01T13:45:57;5.63;;;4.05;;
7487;SDS011;3785;52.260;4.728;2023-03-01T13:49:20;5.80;;;3.90;;
7487;SDS011;3785;52.260;4.728;2023-03-01T13:52:43;6.88;;;3.58;;
7487;SDS011;3785;52.260;4.728;2023-03-01T13:56:12;6.78;;;3.95;;
7487;SDS011;3785;52.260;4.728;2023-03-01T13:59:46;6.45;;;3.88;;
7487;SDS011;3785;52.260;4.728;2023-03-01T14:06:31;6.03;;;4.00;;
7487;SDS011;3785;52.260;4.728;2023-03-01T14:09:54;6.43;;;3.88;;
7487;SDS011;3785;52.260;4.728;2023-03-01T14:17:08;7.15;;;4.00;;
7487;SDS011;3785;52.260;4.728;2023-03-01T14:21:12;5.25;;;3.75;;
7487;SDS011;3785;52.260;4.728;2023-03-01T14:24:34;4.75;;;3.10;;
7487;SDS011;3785;52.260;4.728;2023-03-01T14:28:19;6.32;;;3.22;;
7487;SDS011;3785;52.260;4.728;2023-03-01T14:31:40;6.35;;;3.35;;
7487;SDS011;3785;52.260;4.728;2023-03-01T14:35:02;4.82;;;3.33;;
7487;SDS011;3785;52.260;4.728;2023-03-01T14:38:32;6.25;;;3.15;;
7487;SDS011;3785;52.260;4.728;2023-03-01T14:41:54;4.95;;;3.15;;
7487;SDS011;3785;52.260;4.728;2023-03-01T14:45:15;5.43;;;2.40;;
7487;SDS011;3785;52.260;4.728;2023-03-01T14:48:35;5.28;;;2.75;;
7487;SDS011;3785;52.260;4.728;2023-03-01T14:52:06;4.40;;;2.85;;
7487;SDS011;3785;52.260;4.728;2023-03-01T14:55:43;6.18;;;3.30;;
7487;SDS011;3785;52.260;4.728;2023-03-01T14:59:07;5.28;;;2.92;;
7487;SDS011;3785;52.260;4.728;2023-03-01T15:02:29;4.40;;;3.00;;
7487;SDS011;3785;52.260;4.728;2023-03-01T15:05:50;6.45;;;3.78;;
7487;SDS011;3785;52.260;4.728;2023-03-01T15:09:13;6.95;;;3.95;;
7487;SDS011;3785;52.260;4.728;2023-03-01T15:19:40;9.48;;;4.05;;
7487;SDS011;3785;52.260;4.728;2023-03-01T15:23:00;7.28;;;3.45;;
7487;SDS011;3785;52.260;4.728;2023-03-01T15:26:26;5.15;;;3.33;;
7487;SDS011;3785;52.260;4.728;2023-03-01T15:29:54;7.30;;;3.58;;
7487;SDS011;3785;52.260;4.728;2023-03-01T15:33:32;5.82;;;3.30;;
7487;SDS011;3785;52.260;4.728;2023-03-01T15:36:55;7.47;;;3.53;;
7487;SDS011;3785;52.260;4.728;2023-03-01T15:40:19;5.75;;;3.33;;
7487;SDS011;3785;52.260;4.728;2023-03-01T15:43:53;5.72;;;3.45;;
7487;SDS011;3785;52.260;4.728;2023-03-01T15:47:23;4.90;;;2.90;;
7487;SDS011;3785;52.260;4.728;2023-03-01T15:50:54;5.43;;;3.03;;
7487;SDS011;3785;52.260;4.728;2023-03-01T15:54:17;6.80;;;3.38;;
7487;SDS011;3785;52.260;4.728;2023-03-01T15:57:39;5.70;;;3.10;;
7487;SDS011;3785;52.260;4.728;2023-03-01T16:01:00;4.95;;;3.08;;
7487;SDS011;3785;52.260;4.728;2023-03-01T16:04:21;5.40;;;2.85;;
7487;SDS011;3785;52.260;4.728;2023-03-01T16:07:42;3.70;;;2.53;;
7487;SDS011;3785;52.260;4.728;2023-03-01T16:11:09;5.70;;;2.85;;
7487;SDS011;3785;52.260;4.728;2023-03-01T16:14:34;4.35;;;2.67;;
7487;SDS011;3785;52.260;4.728;2023-03-01T16:17:55;4.55;;;3.10;;
7487;SDS011;3785;52.260;4.728;2023-03-01T16:21:19;4.72;;;2.80;;
7487;SDS011;3785;52.260;4.728;2023-03-01T16:24:41;6.00;;;3.13;;
7487;SDS011;3785;52.260;4.728;2023-03-01T16:28:02;5.40;;;3.10;;
7487;SDS011;3785;52.260;4.728;2023-03-01T16:31:28;4.95;;;3.13;;
7487;SDS011;3785;52.260;4.728;2023-03-01T16:34:49;4.78;;;3.22;;
7487;SDS011;3785;52.260;4.728;2023-03-01T16:38:09;5.18;;;2.85;;
7487;SDS011;3785;52.260;4.728;2023-03-01T16:41:30;4.40;;;2.83;;
7487;SDS011;3785;52.260;4.728;2023-03-01T16:44:54;4.70;;;2.92;;
7487;SDS011;3785;52.260;4.728;2023-03-01T16:48:15;5.57;;;3.50;;
7487;SDS011;3785;52.260;4.728;2023-03-01T16:51:36;4.53;;;2.60;;
7487;SDS011;3785;52.260;4.728;2023-03-01T16:54:57;7.45;;;2.75;;
7487;SDS011;3785;52.260;4.728;2023-03-01T16:58:17;7.18;;;3.00;;
7487;SDS011;3785;52.260;4.728;2023-03-01T17:01:38;4.93;;;3.20;;
7487;SDS011;3785;52.260;4.728;2023-03-01T17:05:00;3.90;;;2.88;;
7487;SDS011;3785;52.260;4.728;2023-03-01T17:08:22;4.75;;;2.95;;
7487;SDS011;3785;52.260;4.728;2023-03-01T17:11:43;4.72;;;2.70;;
7487;SDS011;3785;52.260;4.728;2023-03-01T17:15:04;4.90;;;2.80;;
7487;SDS011;3785;52.260;4.728;2023-03-01T17:18:25;5.18;;;2.58;;
7487;SDS011;3785;52.260;4.728;2023-03-01T17:21:46;4.40;;;2.72;;
7487;SDS011;3785;52.260;4.728;2023-03-01T17:25:07;5.30;;;3.45;;
7487;SDS011;3785;52.260;4.728;2023-03-01T17:28:29;4.55;;;2.75;;
7487;SDS011;3785;52.260;4.728;2023-03-01T17:31:51;5.20;;;2.90;;
7487;SDS011;3785;52.260;4.728;2023-03-01T17:35:14;4.25;;;2.95;;
7487;SDS011;3785;52.260;4.728;2023-03-01T17:38:35;5.13;;;2.85;;
7487;SDS011;3785;52.260;4.728;2023-03-01T17:41:56;7.15;;;3.08;;
7487;SDS011;3785;52.260;4.728;2023-03-01T17:45:17;5.88;;;3.35;;
7487;SDS011;3785;52.260;4.728;2023-03-01T17:48:37;7.43;;;3.35;;
7487;SDS011;3785;52.260;4.728;2023-03-01T17:51:58;6.25;;;3.53;;
7487;SDS011;3785;52.260;4.728;2023-03-01T17:55:19;5.15;;;2.92;;
7487;SDS011;3785;52.260;4.728;2023-03-01T17:58:41;6.00;;;2.67;;
7487;SDS011;3785;52.260;4.728;2023-03-01T18:02:01;6.57;;;3.38;;
7487;SDS011;3785;52.260;4.728;2023-03-01T18:05:22;7.40;;;3.40;;
7487;SDS011;3785;52.260;4.728;2023-03-01T18:08:44;5.13;;;3.17;;
7487;SDS011;3785;52.260;4.728;2023-03-01T18:12:05;6.82;;;2.95;;
7487;SDS011;3785;52.260;4.728;2023-03-01T18:15:26;6.50;;;3.53;;
7487;SDS011;3785;52.260;4.728;2023-03-01T18:18:51;6.72;;;3.70;;
7487;SDS011;3785;52.260;4.728;2023-03-01T18:22:13;5.15;;;3.03;;
7487;SDS011;3785;52.260;4.728;2023-03-01T18:25:34;6.15;;;3.20;;
7487;SDS011;3785;52.260;4.728;2023-03-01T18:28:58;4.95;;;2.97;;
7487;SDS011;3785;52.260;4.728;2023-03-01T18:32:20;7.40;;;3.50;;
7487;SDS011;3785;52.260;4.728;2023-03-01T18:35:40;6.82;;;3.53;;
7487;SDS011;3785;52.260;4.728;2023-03-01T18:39:02;4.90;;;3.10;;
7487;SDS011;3785;52.260;4.728;2023-03-01T18:42:25;8.55;;;3.70;;
7487;SDS011;3785;52.260;4.728;2023-03-01T18:45:45;5.22;;;3.20;;
7487;SDS011;3785;52.260;4.728;2023-03-01T18:49:06;6.53;;;3.38;;
7487;SDS011;3785;52.260;4.728;2023-03-01T18:52:27;6.57;;;3.22;;
7487;SDS011;3785;52.260;4.728;2023-03-01T18:55:48;6.72;;;3.88;;
7487;SDS011;3785;52.260;4.728;2023-03-01T18:59:08;4.10;;;2.90;;
7487;SDS011;3785;52.260;4.728;2023-03-01T19:02:29;5.80;;;3.47;;
7487;SDS011;3785;52.260;4.728;2023-03-01T19:05:49;5.78;;;3.25;;
7487;SDS011;3785;52.260;4.728;2023-03-01T19:09:10;7.03;;;3.70;;
7487;SDS011;3785;52.260;4.728;2023-03-01T19:12:30;4.93;;;3.40;;
7487;SDS011;3785;52.260;4.728;2023-03-01T19:15:51;6.97;;;3.90;;
7487;SDS011;3785;52.260;4.728;2023-03-01T19:19:20;7.80;;;4.13;;
7487;SDS011;3785;52.260;4.728;2023-03-01T19:22:41;7.20;;;3.78;;
7487;SDS011;3785;52.260;4.728;2023-03-01T19:26:02;7.30;;;3.83;;
7487;SDS011;3785;52.260;4.728;2023-03-01T19:29:25;5.93;;;3.60;;
7487;SDS011;3785;52.260;4.728;2023-03-01T19:32:46;6.13;;;3.90;;
7487;SDS011;3785;52.260;4.728;2023-03-01T19:36:07;6.70;;;3.90;;
7487;SDS011;3785;52.260;4.728;2023-03-01T19:39:28;6.75;;;3.85;;
7487;SDS011;3785;52.260;4.728;2023-03-01T19:42:49;6.93;;;4.22;;
7487;SDS011;3785;52.260;4.728;2023-03-01T19:46:10;8.43;;;4.23;;
7487;SDS011;3785;52.260;4.728;2023-03-01T19:49:31;9.15;;;4.60;;
7487;SDS011;3785;52.260;4.728;2023-03-01T19:52:51;9.47;;;4.47;;
7487;SDS011;3785;52.260;4.728;2023-03-01T19:56:12;10.25;;;4.50;;
7487;SDS011;3785;52.260;4.728;2023-03-01T19:59:32;8.07;;;3.97;;
7487;SDS011;3785;52.260;4.728;2023-03-01T20:02:53;7.43;;;4.10;;
7487;SDS011;3785;52.260;4.728;2023-03-01T20:06:15;8.57;;;4.22;;
7487;SDS011;3785;52.260;4.728;2023-03-01T20:09:39;7.95;;;4.32;;
7487;SDS011;3785;52.260;4.728;2023-03-01T20:13:00;8.85;;;5.15;;
7487;SDS011;3785;52.260;4.728;2023-03-01T20:16:21;7.63;;;4.80;;
7487;SDS011;3785;52.260;4.728;2023-03-01T20:19:43;6.97;;;4.22;;
7487;SDS011;3785;52.260;4.728;2023-03-01T20:23:04;5.75;;;4.25;;
7487;SDS011;3785;52.260;4.728;2023-03-01T20:26:24;9.97;;;5.17;;
7487;SDS011;3785;52.260;4.728;2023-03-01T20:29:46;10.25;;;4.88;;
7487;SDS011;3785;52.260;4.728;2023-03-01T20:33:06;9.05;;;4.95;;
7487;SDS011;3785;52.260;4.728;2023-03-01T20:36:27;7.93;;;4.28;;
7487;SDS011;3785;52.260;4.728;2023-03-01T20:39:48;10.15;;;5.40;;
7487;SDS011;3785;52.260;4.728;2023-03-01T20:43:08;10.57;;;4.63;;
7487;SDS011;3785;52.260;4.728;2023-03-01T20:46:29;9.73;;;4.72;;
7487;SDS011;3785;52.260;4.728;2023-03-01T20:49:51;8.70;;;4.57;;
7487;SDS011;3785;52.260;4.728;2023-03-01T20:53:11;9.53;;;5.07;;
7487;SDS011;3785;52.260;4.728;2023-03-01T20:56:32;11.97;;;5.40;;
7487;SDS011;3785;52.260;4.728;2023-03-01T20:59:53;8.60;;;5.13;;
7487;SDS011;3785;52.260;4.728;2023-03-01T21:03:13;8.50;;;4.70;;
7487;SDS011;3785;52.260;4.728;2023-03-01T21:06:34;8.27;;;4.30;;
7487;SDS011;3785;52.260;4.728;2023-03-01T21:09:55;9.27;;;4.93;;
7487;SDS011;3785;52.260;4.728;2023-03-01T21:13:15;10.03;;;4.97;;
7487;SDS011;3785;52.260;4.728;2023-03-01T21:16:36;10.73;;;5.67;;
7487;SDS011;3785;52.260;4.728;2023-03-01T21:19:56;10.23;;;5.17;;
7487;SDS011;3785;52.260;4.728;2023-03-01T21:23:17;10.75;;;5.28;;
7487;SDS011;3785;52.260;4.728;2023-03-01T21:26:38;9.10;;;4.77;;
7487;SDS011;3785;52.260;4.728;2023-03-01T21:29:58;8.27;;;4.90;;
7487;SDS011;3785;52.260;4.728;2023-03-01T21:33:19;8.83;;;4.77;;
7487;SDS011;3785;52.260;4.728;2023-03-01T21:36:40;11.73;;;5.57;;
7487;SDS011;3785;52.260;4.728;2023-03-01T21:40:01;12.23;;;5.47;;
7487;SDS011;3785;52.260;4.728;2023-03-01T21:43:23;8.70;;;5.37;;
7487;SDS011;3785;52.260;4.728;2023-03-01T21:46:44;10.20;;;5.17;;
7487;SDS011;3785;52.260;4.728;2023-03-01T21:50:04;9.37;;;5.43;;
7487;SDS011;3785;52.260;4.728;2023-03-01T21:53:28;8.40;;;4.67;;
7487;SDS011;3785;52.260;4.728;2023-03-01T21:56:50;8.60;;;4.70;;
7487;SDS011;3785;52.260;4.728;2023-03-01T22:00:11;9.30;;;4.93;;
7487;SDS011;3785;52.260;4.728;2023-03-01T22:03:35;11.67;;;5.53;;
7487;SDS011;3785;52.260;4.728;2023-03-01T22:07:05;9.93;;;5.60;;
7487;SDS011;3785;52.260;4.728;2023-03-01T22:10:26;10.63;;;5.60;;
7487;SDS011;3785;52.260;4.728;2023-03-01T22:13:48;8.43;;;5.03;;
7487;SDS011;3785;52.260;4.728;2023-03-01T22:17:11;13.50;;;6.43;;
7487;SDS011;3785;52.260;4.728;2023-03-01T22:20:31;13.43;;;6.50;;
7487;SDS011;3785;52.260;4.728;2023-03-01T22:23:52;13.63;;;6.00;;
7487;SDS011;3785;52.260;4.728;2023-03-01T22:27:14;13.27;;;7.50;;
7487;SDS011;3785;52.260;4.728;2023-03-01T22:30:34;14.17;;;6.67;;
7487;SDS011;3785;52.260;4.728;2023-03-01T22:33:55;13.77;;;6.87;;
7487;SDS011;3785;52.260;4.728;2023-03-01T22:37:17;12.10;;;6.53;;
7487;SDS011;3785;52.260;4.728;2023-03-01T22:40:37;14.47;;;6.97;;
7487;SDS011;3785;52.260;4.728;2023-03-01T22:43:58;13.70;;;7.60;;
7487;SDS011;3785;52.260;4.728;2023-03-01T22:47:19;17.00;;;7.93;;
7487;SDS011;3785;52.260;4.728;2023-03-01T22:50:43;13.33;;;7.83;;
7487;SDS011;3785;52.260;4.728;2023-03-01T22:54:05;19.53;;;8.37;;